sensor_id;sensor_type;location;lat;lon;timestamp;P1;durP1;ratioP1;P2;durP2;ratioP2
70825;SDS011;58446;41.490;22.098;2023-03-08T00:01:47;9.63;;;5.95;;
70825;SDS011;58446;41.490;22.098;2023-03-08T00:04:13;11.93;;;6.00;;
70825;SDS011;58446;41.490;22.098;2023-03-08T00:06:39;9.33;;;5.77;;
70825;SDS011;58446;41.490;22.098;2023-03-08T00:09:04;9.90;;;5.82;;
70825;SDS011;58446;41.490;22.098;2023-03-08T00:11:30;10.13;;;5.43;;
70825;SDS011;58446;41.490;22.098;2023-03-08T00:13:56;10.07;;;5.20;;
70825;SDS011;58446;41.490;22.098;2023-03-08T00:16:22;10.97;;;6.20;;
70825;SDS011;58446;41.490;22.098;2023-03-08T00:18:48;9.25;;;5.40;;
70825;SDS011;58446;41.490;22.098;2023-03-08T00:21:14;9.00;;;5.47;;
70825;SDS011;58446;41.490;22.098;2023-03-08T00:23:43;9.17;;;5.57;;
70825;SDS011;58446;41.490;22.098;2023-03-08T00:26:10;8.98;;;5.70;;
70825;SDS011;58446;41.490;22.098;2023-03-08T00:28:36;9.40;;;6.38;;
70825;SDS011;58446;41.490;22.098;2023-03-08T00:31:04;10.95;;;5.97;;
70825;SDS011;58446;41.490;22.098;2023-03-08T00:33:31;10.98;;;5.97;;
70825;SDS011;58446;41.490;22.098;2023-03-08T00:36:05;8.80;;;4.97;;
70825;SDS011;58446;41.490;22.098;2023-03-08T00:38:37;11.82;;;6.13;;
70825;SDS011;58446;41.490;22.098;2023-03-08T00:41:04;9.80;;;6.10;;
70825;SDS011;58446;41.490;22.098;2023-03-08T00:43:29;10.30;;;5.15;;
70825;SDS011;58446;41.490;22.098;2023-03-08T00:45:55;8.90;;;5.60;;
70825;SDS011;58446;41.490;22.098;2023-03-08T00:48:21;9.43;;;5.60;;
70825;SDS011;58446;41.490;22.098;2023-03-08T00:50:47;8.45;;;5.70;;
70825;SDS011;58446;41.490;22.098;2023-03-08T00:53:13;10.20;;;5.78;;
70825;SDS011;58446;41.490;22.098;2023-03-08T00:55:39;9.43;;;5.47;;
70825;SDS011;58446;41.490;22.098;2023-03-08T00:58:14;8.98;;;5.22;;
70825;SDS011;58446;41.490;22.098;2023-03-08T01:00:40;8.53;;;5.60;;
70825;SDS011;58446;41.490;22.098;2023-03-08T01:03:06;8.90;;;5.80;;
70825;SDS011;58446;41.490;22.098;2023-03-08T01:05:33;9.32;;;6.30;;
70825;SDS011;58446;41.490;22.098;2023-03-08T01:08:02;10.18;;;5.75;;
70825;SDS011;58446;41.490;22.098;2023-03-08T01:10:29;10.73;;;6.70;;
70825;SDS011;58446;41.490;22.098;2023-03-08T01:12:55;10.05;;;6.10;;
70825;SDS011;58446;41.490;22.098;2023-03-08T01:15:20;11.73;;;6.50;;
70825;SDS011;58446;41.490;22.098;2023-03-08T01:17:46;11.75;;;7.25;;
70825;SDS011;58446;41.490;22.098;2023-03-08T01:20:12;13.13;;;7.70;;
70825;SDS011;58446;41.490;22.098;2023-03-08T01:22:38;11.73;;;7.32;;
70825;SDS011;58446;41.490;22.098;2023-03-08T01:25:04;11.97;;;7.30;;
70825;SDS011;58446;41.490;22.098;2023-03-08T01:27:29;11.95;;;6.60;;
70825;SDS011;58446;41.490;22.098;2023-03-08T01:29:55;11.80;;;6.93;;
70825;SDS011;58446;41.490;22.098;2023-03-08T01:32:21;20.83;;;11.60;;
70825;SDS011;58446;41.490;22.098;2023-03-08T01:34:46;13.63;;;8.73;;
70825;SDS011;58446;41.490;22.098;2023-03-08T01:37:13;17.45;;;9.43;;
70825;SDS011;58446;41.490;22.098;2023-03-08T01:39:38;19.58;;;11.07;;
70825;SDS011;58446;41.490;22.098;2023-03-08T01:42:04;23.80;;;12.83;;
70825;SDS011;58446;41.490;22.098;2023-03-08T01:47:19;27.95;;;15.82;;
70825;SDS011;58446;41.490;22.098;2023-03-08T01:49:48;28.10;;;15.30;;
70825;SDS011;58446;41.490;22.098;2023-03-08T01:52:17;25.10;;;13.70;;
70825;SDS011;58446;41.490;22.098;2023-03-08T01:54:57;17.08;;;9.40;;
70825;SDS011;58446;41.490;22.098;2023-03-08T01:57:27;17.67;;;11.13;;
70825;SDS011;58446;41.490;22.098;2023-03-08T02:00:03;16.50;;;10.07;;
70825;SDS011;58446;41.490;22.098;2023-03-08T02:02:40;19.03;;;11.10;;
70825;SDS011;58446;41.490;22.098;2023-03-08T02:05:18;18.08;;;10.85;;
70825;SDS011;58446;41.490;22.098;2023-03-08T02:07:44;19.13;;;11.10;;
70825;SDS011;58446;41.490;22.098;2023-03-08T02:10:11;20.73;;;11.63;;
70825;SDS011;58446;41.490;22.098;2023-03-08T02:12:37;17.33;;;10.52;;
70825;SDS011;58446;41.490;22.098;2023-03-08T02:15:04;19.52;;;11.50;;
70825;SDS011;58446;41.490;22.098;2023-03-08T02:17:33;16.50;;;9.45;;
70825;SDS011;58446;41.490;22.098;2023-03-08T02:20:20;14.13;;;8.90;;
70825;SDS011;58446;41.490;22.098;2023-03-08T02:22:51;16.33;;;8.87;;
70825;SDS011;58446;41.490;22.098;2023-03-08T02:25:24;15.60;;;9.40;;
70825;SDS011;58446;41.490;22.098;2023-03-08T02:27:51;13.38;;;9.43;;
70825;SDS011;58446;41.490;22.098;2023-03-08T02:30:25;14.20;;;9.00;;
70825;SDS011;58446;41.490;22.098;2023-03-08T02:32:54;14.52;;;8.65;;
70825;SDS011;58446;41.490;22.098;2023-03-08T02:35:20;15.38;;;9.88;;
70825;SDS011;58446;41.490;22.098;2023-03-08T02:37:46;14.60;;;8.47;;
70825;SDS011;58446;41.490;22.098;2023-03-08T02:40:12;15.13;;;9.13;;
70825;SDS011;58446;41.490;22.098;2023-03-08T02:42:38;15.30;;;9.80;;
70825;SDS011;58446;41.490;22.098;2023-03-08T02:45:04;19.53;;;10.43;;
70825;SDS011;58446;41.490;22.098;2023-03-08T02:47:30;16.92;;;11.18;;
70825;SDS011;58446;41.490;22.098;2023-03-08T02:49:55;18.07;;;10.80;;
70825;SDS011;58446;41.490;22.098;2023-03-08T02:52:21;18.95;;;10.82;;
70825;SDS011;58446;41.490;22.098;2023-03-08T02:54:47;15.67;;;10.07;;
70825;SDS011;58446;41.490;22.098;2023-03-08T02:57:12;19.48;;;11.43;;
70825;SDS011;58446;41.490;22.098;2023-03-08T02:59:38;17.27;;;10.87;;
70825;SDS011;58446;41.490;22.098;2023-03-08T03:02:04;17.63;;;11.00;;
70825;SDS011;58446;41.490;22.098;2023-03-08T03:04:30;18.57;;;11.93;;
70825;SDS011;58446;41.490;22.098;2023-03-08T03:06:57;18.08;;;11.02;;
70825;SDS011;58446;41.490;22.098;2023-03-08T03:09:23;16.65;;;10.77;;
70825;SDS011;58446;41.490;22.098;2023-03-08T03:11:49;18.85;;;10.90;;
70825;SDS011;58446;41.490;22.098;2023-03-08T03:14:15;15.83;;;10.77;;
70825;SDS011;58446;41.490;22.098;2023-03-08T03:16:41;17.23;;;10.73;;
70825;SDS011;58446;41.490;22.098;2023-03-08T03:19:06;18.03;;;10.33;;
70825;SDS011;58446;41.490;22.098;2023-03-08T03:21:32;28.80;;;17.67;;
70825;SDS011;58446;41.490;22.098;2023-03-08T03:23:57;25.57;;;17.23;;
70825;SDS011;58446;41.490;22.098;2023-03-08T03:26:23;26.63;;;17.23;;
70825;SDS011;58446;41.490;22.098;2023-03-08T03:28:49;21.33;;;13.63;;
70825;SDS011;58446;41.490;22.098;2023-03-08T03:31:20;21.70;;;13.52;;
70825;SDS011;58446;41.490;22.098;2023-03-08T03:33:46;21.45;;;14.48;;
70825;SDS011;58446;41.490;22.098;2023-03-08T03:36:14;24.25;;;14.38;;
70825;SDS011;58446;41.490;22.098;2023-03-08T03:38:41;21.92;;;14.05;;
70825;SDS011;58446;41.490;22.098;2023-03-08T03:41:17;21.17;;;13.67;;
70825;SDS011;58446;41.490;22.098;2023-03-08T03:43:44;23.40;;;14.35;;
70825;SDS011;58446;41.490;22.098;2023-03-08T03:46:12;24.10;;;13.38;;
70825;SDS011;58446;41.490;22.098;2023-03-08T03:48:39;20.60;;;12.82;;
70825;SDS011;58446;41.490;22.098;2023-03-08T03:51:09;21.63;;;13.00;;
70825;SDS011;58446;41.490;22.098;2023-03-08T03:53:37;21.07;;;12.80;;
70825;SDS011;58446;41.490;22.098;2023-03-08T03:58:38;17.88;;;12.02;;
70825;SDS011;58446;41.490;22.098;2023-03-08T04:01:14;19.53;;;10.87;;
70825;SDS011;58446;41.490;22.098;2023-03-08T04:03:42;18.95;;;11.82;;
70825;SDS011;58446;41.490;22.098;2023-03-08T04:06:10;18.77;;;11.75;;
70825;SDS011;58446;41.490;22.098;2023-03-08T04:08:38;18.80;;;11.30;;
70825;SDS011;58446;41.490;22.098;2023-03-08T04:11:08;15.13;;;9.50;;
70825;SDS011;58446;41.490;22.098;2023-03-08T04:13:35;13.77;;;10.37;;
70825;SDS011;58446;41.490;22.098;2023-03-08T04:16:08;16.30;;;11.27;;
70825;SDS011;58446;41.490;22.098;2023-03-08T04:18:40;17.65;;;11.85;;
70825;SDS011;58446;41.490;22.098;2023-03-08T04:21:06;16.52;;;11.38;;
70825;SDS011;58446;41.490;22.098;2023-03-08T04:23:32;17.13;;;11.63;;
70825;SDS011;58446;41.490;22.098;2023-03-08T04:25:58;17.95;;;10.50;;
70825;SDS011;58446;41.490;22.098;2023-03-08T04:28:25;16.88;;;11.07;;
70825;SDS011;58446;41.490;22.098;2023-03-08T04:30:50;13.77;;;9.90;;
70825;SDS011;58446;41.490;22.098;2023-03-08T04:33:16;15.90;;;10.57;;
70825;SDS011;58446;41.490;22.098;2023-03-08T04:35:42;15.35;;;10.55;;
70825;SDS011;58446;41.490;22.098;2023-03-08T04:38:07;17.53;;;11.17;;
70825;SDS011;58446;41.490;22.098;2023-03-08T04:40:33;17.93;;;10.63;;
70825;SDS011;58446;41.490;22.098;2023-03-08T04:43:19;16.80;;;10.73;;
70825;SDS011;58446;41.490;22.098;2023-03-08T04:45:44;20.42;;;12.15;;
70825;SDS011;58446;41.490;22.098;2023-03-08T04:48:10;18.77;;;11.70;;
70825;SDS011;58446;41.490;22.098;2023-03-08T04:50:36;16.55;;;9.75;;
70825;SDS011;58446;41.490;22.098;2023-03-08T04:53:03;18.45;;;10.95;;
70825;SDS011;58446;41.490;22.098;2023-03-08T04:55:29;17.97;;;11.13;;
70825;SDS011;58446;41.490;22.098;2023-03-08T04:57:55;18.40;;;11.57;;
70825;SDS011;58446;41.490;22.098;2023-03-08T05:00:20;18.33;;;12.33;;
70825;SDS011;58446;41.490;22.098;2023-03-08T05:02:46;16.10;;;11.50;;
70825;SDS011;58446;41.490;22.098;2023-03-08T05:05:12;18.93;;;11.47;;
70825;SDS011;58446;41.490;22.098;2023-03-08T05:07:38;19.65;;;11.82;;
70825;SDS011;58446;41.490;22.098;2023-03-08T05:10:03;19.37;;;12.77;;
70825;SDS011;58446;41.490;22.098;2023-03-08T05:12:29;21.00;;;11.57;;
70825;SDS011;58446;41.490;22.098;2023-03-08T05:14:55;20.73;;;11.57;;
70825;SDS011;58446;41.490;22.098;2023-03-08T05:17:21;14.93;;;10.07;;
70825;SDS011;58446;41.490;22.098;2023-03-08T05:19:46;14.27;;;9.15;;
70825;SDS011;58446;41.490;22.098;2023-03-08T05:22:12;18.33;;;11.73;;
70825;SDS011;58446;41.490;22.098;2023-03-08T05:24:38;34.30;;;18.67;;
70825;SDS011;58446;41.490;22.098;2023-03-08T05:27:06;20.23;;;12.95;;
70825;SDS011;58446;41.490;22.098;2023-03-08T05:29:33;20.80;;;13.23;;
70825;SDS011;58446;41.490;22.098;2023-03-08T05:32:10;22.77;;;14.43;;
70825;SDS011;58446;41.490;22.098;2023-03-08T05:34:36;26.65;;;14.50;;
70825;SDS011;58446;41.490;22.098;2023-03-08T05:37:02;24.03;;;15.03;;
70825;SDS011;58446;41.490;22.098;2023-03-08T05:39:28;30.85;;;25.35;;
70825;SDS011;58446;41.490;22.098;2023-03-08T05:41:54;22.75;;;17.30;;
70825;SDS011;58446;41.490;22.098;2023-03-08T05:44:20;20.23;;;14.80;;
70825;SDS011;58446;41.490;22.098;2023-03-08T05:46:49;22.27;;;16.48;;
70825;SDS011;58446;41.490;22.098;2023-03-08T05:49:15;21.67;;;13.18;;
70825;SDS011;58446;41.490;22.098;2023-03-08T05:51:40;19.50;;;12.73;;
70825;SDS011;58446;41.490;22.098;2023-03-08T05:54:06;18.83;;;12.77;;
70825;SDS011;58446;41.490;22.098;2023-03-08T05:56:32;19.10;;;12.38;;
70825;SDS011;58446;41.490;22.098;2023-03-08T05:58:58;22.40;;;15.87;;
70825;SDS011;58446;41.490;22.098;2023-03-08T06:01:24;35.67;;;22.13;;
70825;SDS011;58446;41.490;22.098;2023-03-08T06:03:52;45.35;;;29.42;;
70825;SDS011;58446;41.490;22.098;2023-03-08T06:06:20;45.47;;;29.65;;
70825;SDS011;58446;41.490;22.098;2023-03-08T06:08:46;57.43;;;36.57;;
70825;SDS011;58446;41.490;22.098;2023-03-08T06:11:13;56.28;;;35.58;;
70825;SDS011;58446;41.490;22.098;2023-03-08T06:13:39;55.22;;;36.58;;
70825;SDS011;58446;41.490;22.098;2023-03-08T06:16:06;51.50;;;33.10;;
70825;SDS011;58446;41.490;22.098;2023-03-08T06:18:32;47.78;;;31.73;;
70825;SDS011;58446;41.490;22.098;2023-03-08T06:21:01;39.23;;;25.33;;
70825;SDS011;58446;41.490;22.098;2023-03-08T06:23:38;33.15;;;21.67;;
70825;SDS011;58446;41.490;22.098;2023-03-08T06:26:04;34.13;;;23.15;;
70825;SDS011;58446;41.490;22.098;2023-03-08T06:28:31;31.98;;;20.73;;
70825;SDS011;58446;41.490;22.098;2023-03-08T06:30:57;29.42;;;20.92;;
70825;SDS011;58446;41.490;22.098;2023-03-08T06:33:24;32.00;;;20.60;;
70825;SDS011;58446;41.490;22.098;2023-03-08T06:35:55;34.75;;;20.98;;
70825;SDS011;58446;41.490;22.098;2023-03-08T06:38:22;47.97;;;33.65;;
70825;SDS011;58446;41.490;22.098;2023-03-08T06:40:49;41.70;;;26.63;;
70825;SDS011;58446;41.490;22.098;2023-03-08T06:43:14;41.43;;;26.07;;
70825;SDS011;58446;41.490;22.098;2023-03-08T06:45:40;49.17;;;31.73;;
70825;SDS011;58446;41.490;22.098;2023-03-08T06:48:06;39.97;;;26.57;;
70825;SDS011;58446;41.490;22.098;2023-03-08T06:50:33;60.70;;;38.60;;
70825;SDS011;58446;41.490;22.098;2023-03-08T06:52:59;56.97;;;39.53;;
70825;SDS011;58446;41.490;22.098;2023-03-08T06:55:25;54.55;;;35.10;;
70825;SDS011;58446;41.490;22.098;2023-03-08T06:57:51;45.88;;;29.67;;
70825;SDS011;58446;41.490;22.098;2023-03-08T07:00:20;46.03;;;27.50;;
70825;SDS011;58446;41.490;22.098;2023-03-08T07:02:46;69.97;;;35.90;;
70825;SDS011;58446;41.490;22.098;2023-03-08T07:05:15;46.40;;;25.93;;
70825;SDS011;58446;41.490;22.098;2023-03-08T07:07:43;47.00;;;28.77;;
70825;SDS011;58446;41.490;22.098;2023-03-08T07:10:10;35.75;;;21.02;;
70825;SDS011;58446;41.490;22.098;2023-03-08T07:12:39;33.20;;;20.80;;
70825;SDS011;58446;41.490;22.098;2023-03-08T07:15:10;24.65;;;15.65;;
70825;SDS011;58446;41.490;22.098;2023-03-08T07:17:38;21.20;;;14.77;;
70825;SDS011;58446;41.490;22.098;2023-03-08T07:20:05;15.27;;;9.95;;
70825;SDS011;58446;41.490;22.098;2023-03-08T07:22:31;21.35;;;13.27;;
70825;SDS011;58446;41.490;22.098;2023-03-08T07:24:57;29.83;;;19.63;;
70825;SDS011;58446;41.490;22.098;2023-03-08T07:27:23;27.90;;;17.67;;
70825;SDS011;58446;41.490;22.098;2023-03-08T07:29:49;25.65;;;16.15;;
70825;SDS011;58446;41.490;22.098;2023-03-08T07:32:15;21.38;;;13.65;;
70825;SDS011;58446;41.490;22.098;2023-03-08T07:34:41;16.83;;;11.73;;
70825;SDS011;58446;41.490;22.098;2023-03-08T07:37:13;14.18;;;9.63;;
70825;SDS011;58446;41.490;22.098;2023-03-08T07:39:40;21.52;;;12.93;;
70825;SDS011;58446;41.490;22.098;2023-03-08T07:42:07;17.97;;;11.97;;
70825;SDS011;58446;41.490;22.098;2023-03-08T07:44:34;16.40;;;10.60;;
70825;SDS011;58446;41.490;22.098;2023-03-08T07:47:01;18.00;;;10.65;;
70825;SDS011;58446;41.490;22.098;2023-03-08T07:49:27;14.93;;;9.52;;
70825;SDS011;58446;41.490;22.098;2023-03-08T07:51:53;15.83;;;10.83;;
70825;SDS011;58446;41.490;22.098;2023-03-08T07:54:19;16.90;;;9.88;;
70825;SDS011;58446;41.490;22.098;2023-03-08T07:56:44;14.25;;;9.43;;
70825;SDS011;58446;41.490;22.098;2023-03-08T07:59:10;13.83;;;8.97;;
70825;SDS011;58446;41.490;22.098;2023-03-08T08:01:36;14.15;;;9.18;;
70825;SDS011;58446;41.490;22.098;2023-03-08T08:04:01;12.73;;;8.20;;
70825;SDS011;58446;41.490;22.098;2023-03-08T08:06:28;14.20;;;8.45;;
70825;SDS011;58446;41.490;22.098;2023-03-08T08:08:54;11.33;;;7.63;;
70825;SDS011;58446;41.490;22.098;2023-03-08T08:11:20;12.68;;;8.25;;
70825;SDS011;58446;41.490;22.098;2023-03-08T08:13:47;12.18;;;8.48;;
70825;SDS011;58446;41.490;22.098;2023-03-08T08:16:13;16.67;;;11.43;;
70825;SDS011;58446;41.490;22.098;2023-03-08T08:18:40;16.55;;;10.70;;
70825;SDS011;58446;41.490;22.098;2023-03-08T08:21:13;27.67;;;16.80;;
70825;SDS011;58446;41.490;22.098;2023-03-08T08:23:40;23.08;;;14.93;;
70825;SDS011;58446;41.490;22.098;2023-03-08T08:26:11;19.40;;;13.13;;
70825;SDS011;58446;41.490;22.098;2023-03-08T08:28:41;22.52;;;15.25;;
70825;SDS011;58446;41.490;22.098;2023-03-08T08:31:10;22.80;;;15.23;;
70825;SDS011;58446;41.490;22.098;2023-03-08T08:33:38;36.07;;;20.60;;
70825;SDS011;58446;41.490;22.098;2023-03-08T08:36:05;18.40;;;12.10;;
70825;SDS011;58446;41.490;22.098;2023-03-08T08:38:32;19.17;;;12.13;;
70825;SDS011;58446;41.490;22.098;2023-03-08T08:41:00;19.13;;;12.13;;
70825;SDS011;58446;41.490;22.098;2023-03-08T08:43:27;17.05;;;11.77;;
70825;SDS011;58446;41.490;22.098;2023-03-08T08:45:53;17.80;;;12.67;;
70825;SDS011;58446;41.490;22.098;2023-03-08T08:48:22;18.60;;;11.80;;
70825;SDS011;58446;41.490;22.098;2023-03-08T08:50:47;19.35;;;13.07;;
70825;SDS011;58446;41.490;22.098;2023-03-08T08:53:13;21.20;;;14.80;;
70825;SDS011;58446;41.490;22.098;2023-03-08T08:55:39;19.73;;;12.68;;
70825;SDS011;58446;41.490;22.098;2023-03-08T08:58:05;23.05;;;15.40;;
70825;SDS011;58446;41.490;22.098;2023-03-08T09:00:33;18.75;;;12.35;;
70825;SDS011;58446;41.490;22.098;2023-03-08T09:02:59;19.17;;;12.60;;
70825;SDS011;58446;41.490;22.098;2023-03-08T09:05:26;17.63;;;11.27;;
70825;SDS011;58446;41.490;22.098;2023-03-08T09:07:55;18.55;;;12.02;;
70825;SDS011;58446;41.490;22.098;2023-03-08T09:10:28;17.23;;;11.00;;
70825;SDS011;58446;41.490;22.098;2023-03-08T09:12:56;15.93;;;9.90;;
70825;SDS011;58446;41.490;22.098;2023-03-08T09:15:23;15.03;;;9.00;;
70825;SDS011;58446;41.490;22.098;2023-03-08T09:17:48;16.10;;;9.52;;
70825;SDS011;58446;41.490;22.098;2023-03-08T09:20:14;15.23;;;10.52;;
70825;SDS011;58446;41.490;22.098;2023-03-08T09:22:40;24.73;;;17.90;;
70825;SDS011;58446;41.490;22.098;2023-03-08T09:25:06;16.83;;;12.02;;
70825;SDS011;58446;41.490;22.098;2023-03-08T09:27:35;15.05;;;9.88;;
70825;SDS011;58446;41.490;22.098;2023-03-08T09:30:02;14.65;;;11.02;;
70825;SDS011;58446;41.490;22.098;2023-03-08T09:32:31;15.00;;;9.97;;
70825;SDS011;58446;41.490;22.098;2023-03-08T09:34:58;14.95;;;8.50;;
70825;SDS011;58446;41.490;22.098;2023-03-08T09:37:23;14.57;;;9.27;;
70825;SDS011;58446;41.490;22.098;2023-03-08T09:39:50;12.23;;;7.57;;
70825;SDS011;58446;41.490;22.098;2023-03-08T09:42:20;14.07;;;8.88;;
70825;SDS011;58446;41.490;22.098;2023-03-08T09:50:36;11.68;;;6.90;;
70825;SDS011;58446;41.490;22.098;2023-03-08T09:53:17;10.48;;;6.90;;
70825;SDS011;58446;41.490;22.098;2023-03-08T09:55:51;13.63;;;8.35;;
70825;SDS011;58446;41.490;22.098;2023-03-08T09:58:57;13.98;;;6.50;;
70825;SDS011;58446;41.490;22.098;2023-03-08T10:01:36;10.27;;;6.30;;
70825;SDS011;58446;41.490;22.098;2023-03-08T10:09:24;13.65;;;8.93;;
70825;SDS011;58446;41.490;22.098;2023-03-08T10:12:39;13.57;;;8.38;;
70825;SDS011;58446;41.490;22.098;2023-03-08T10:15:10;24.40;;;16.57;;
70825;SDS011;58446;41.490;22.098;2023-03-08T10:17:47;15.43;;;9.73;;
70825;SDS011;58446;41.490;22.098;2023-03-08T10:20:22;14.75;;;9.60;;
70825;SDS011;58446;41.490;22.098;2023-03-08T10:23:01;13.23;;;7.93;;
70825;SDS011;58446;41.490;22.098;2023-03-08T10:25:36;11.55;;;6.70;;
70825;SDS011;58446;41.490;22.098;2023-03-08T10:28:04;10.87;;;6.87;;
70825;SDS011;58446;41.490;22.098;2023-03-08T10:30:37;10.50;;;6.50;;
70825;SDS011;58446;41.490;22.098;2023-03-08T10:33:07;11.10;;;7.35;;
70825;SDS011;58446;41.490;22.098;2023-03-08T10:35:37;10.30;;;6.03;;
70825;SDS011;58446;41.490;22.098;2023-03-08T10:38:15;9.30;;;5.45;;
70825;SDS011;58446;41.490;22.098;2023-03-08T10:40:41;8.13;;;5.07;;
70825;SDS011;58446;41.490;22.098;2023-03-08T10:43:07;9.10;;;5.57;;
70825;SDS011;58446;41.490;22.098;2023-03-08T10:46:03;7.55;;;4.53;;
70825;SDS011;58446;41.490;22.098;2023-03-08T10:48:30;7.65;;;4.60;;
70825;SDS011;58446;41.490;22.098;2023-03-08T10:51:00;6.67;;;4.30;;
70825;SDS011;58446;41.490;22.098;2023-03-08T10:53:28;8.13;;;4.35;;
70825;SDS011;58446;41.490;22.098;2023-03-08T10:55:55;8.45;;;4.38;;
70825;SDS011;58446;41.490;22.098;2023-03-08T10:58:27;7.70;;;4.63;;
70825;SDS011;58446;41.490;22.098;2023-03-08T11:01:00;8.77;;;4.80;;
70825;SDS011;58446;41.490;22.098;2023-03-08T11:03:30;9.70;;;4.67;;
70825;SDS011;58446;41.490;22.098;2023-03-08T11:05:57;8.68;;;5.47;;
70825;SDS011;58446;41.490;22.098;2023-03-08T11:08:37;12.00;;;7.00;;
70825;SDS011;58446;41.490;22.098;2023-03-08T11:11:06;9.82;;;5.88;;
70825;SDS011;58446;41.490;22.098;2023-03-08T11:13:35;8.48;;;5.35;;
70825;SDS011;58446;41.490;22.098;2023-03-08T11:21:35;7.65;;;4.88;;
70825;SDS011;58446;41.490;22.098;2023-03-08T11:30:06;11.30;;;6.73;;
70825;SDS011;58446;41.490;22.098;2023-03-08T11:35:56;9.77;;;5.32;;
70825;SDS011;58446;41.490;22.098;2023-03-08T11:38:29;9.57;;;5.35;;
70825;SDS011;58446;41.490;22.098;2023-03-08T11:44:05;13.63;;;7.20;;
70825;SDS011;58446;41.490;22.098;2023-03-08T11:55:18;10.20;;;5.95;;
70825;SDS011;58446;41.490;22.098;2023-03-08T11:58:24;7.87;;;5.70;;
70825;SDS011;58446;41.490;22.098;2023-03-08T12:00:45;8.02;;;4.80;;
70825;SDS011;58446;41.490;22.098;2023-03-08T12:03:20;8.02;;;4.80;;
70825;SDS011;58446;41.490;22.098;2023-03-08T12:05:56;8.55;;;5.18;;
70825;SDS011;58446;41.490;22.098;2023-03-08T12:08:33;8.05;;;4.82;;
70825;SDS011;58446;41.490;22.098;2023-03-08T12:11:10;8.03;;;5.03;;
70825;SDS011;58446;41.490;22.098;2023-03-08T12:24:52;7.23;;;4.90;;
70825;SDS011;58446;41.490;22.098;2023-03-08T12:32:46;9.03;;;5.67;;
70825;SDS011;58446;41.490;22.098;2023-03-08T12:37:56;10.55;;;4.97;;
70825;SDS011;58446;41.490;22.098;2023-03-08T12:40:42;8.80;;;5.63;;
70825;SDS011;58446;41.490;22.098;2023-03-08T12:45:46;12.13;;;7.37;;
70825;SDS011;58446;41.490;22.098;2023-03-08T12:53:39;6.72;;;4.10;;
70825;SDS011;58446;41.490;22.098;2023-03-08T12:56:20;7.97;;;4.40;;
70825;SDS011;58446;41.490;22.098;2023-03-08T12:58:51;6.27;;;4.00;;
70825;SDS011;58446;41.490;22.098;2023-03-08T13:01:23;6.72;;;3.50;;
70825;SDS011;58446;41.490;22.098;2023-03-08T13:03:51;5.90;;;3.38;;
70825;SDS011;58446;41.490;22.098;2023-03-08T13:08:54;6.22;;;3.67;;
70825;SDS011;58446;41.490;22.098;2023-03-08T13:11:36;6.57;;;3.17;;
70825;SDS011;58446;41.490;22.098;2023-03-08T13:14:20;30.42;;;13.88;;
70825;SDS011;58446;41.490;22.098;2023-03-08T13:16:49;14.40;;;5.85;;
70825;SDS011;58446;41.490;22.098;2023-03-08T13:19:16;7.90;;;4.00;;
70825;SDS011;58446;41.490;22.098;2023-03-08T13:24:35;6.10;;;3.10;;
70825;SDS011;58446;41.490;22.098;2023-03-08T13:27:17;7.28;;;3.53;;
70825;SDS011;58446;41.490;22.098;2023-03-08T13:29:49;6.60;;;3.15;;
70825;SDS011;58446;41.490;22.098;2023-03-08T13:32:17;7.10;;;3.20;;
70825;SDS011;58446;41.490;22.098;2023-03-08T13:34:44;5.28;;;3.05;;
70825;SDS011;58446;41.490;22.098;2023-03-08T13:37:23;5.95;;;2.88;;
70825;SDS011;58446;41.490;22.098;2023-03-08T13:39:51;6.38;;;2.63;;
70825;SDS011;58446;41.490;22.098;2023-03-08T13:42:18;5.70;;;3.50;;
70825;SDS011;58446;41.490;22.098;2023-03-08T13:44:49;5.40;;;2.93;;
70825;SDS011;58446;41.490;22.098;2023-03-08T13:47:18;4.95;;;2.55;;
70825;SDS011;58446;41.490;22.098;2023-03-08T13:49:47;6.50;;;4.10;;
70825;SDS011;58446;41.490;22.098;2023-03-08T13:52:16;8.05;;;3.97;;
70825;SDS011;58446;41.490;22.098;2023-03-08T13:54:53;9.25;;;4.20;;
70825;SDS011;58446;41.490;22.098;2023-03-08T13:57:23;7.63;;;4.43;;
70825;SDS011;58446;41.490;22.098;2023-03-08T13:59:52;7.68;;;3.33;;
70825;SDS011;58446;41.490;22.098;2023-03-08T14:02:23;11.10;;;6.85;;
70825;SDS011;58446;41.490;22.098;2023-03-08T14:04:53;6.13;;;2.80;;
70825;SDS011;58446;41.490;22.098;2023-03-08T14:07:21;8.10;;;3.80;;
70825;SDS011;58446;41.490;22.098;2023-03-08T14:09:49;14.93;;;11.50;;
70825;SDS011;58446;41.490;22.098;2023-03-08T14:12:16;8.85;;;5.20;;
70825;SDS011;58446;41.490;22.098;2023-03-08T14:14:45;8.27;;;4.63;;
70825;SDS011;58446;41.490;22.098;2023-03-08T14:17:26;6.25;;;3.40;;
70825;SDS011;58446;41.490;22.098;2023-03-08T14:19:58;7.90;;;4.57;;
70825;SDS011;58446;41.490;22.098;2023-03-08T14:22:26;12.38;;;7.20;;
70825;SDS011;58446;41.490;22.098;2023-03-08T14:24:55;11.02;;;6.05;;
70825;SDS011;58446;41.490;22.098;2023-03-08T14:27:41;8.45;;;4.60;;
70825;SDS011;58446;41.490;22.098;2023-03-08T14:32:39;9.23;;;4.93;;
70825;SDS011;58446;41.490;22.098;2023-03-08T14:35:14;10.50;;;5.25;;
70825;SDS011;58446;41.490;22.098;2023-03-08T14:37:44;7.68;;;4.07;;
70825;SDS011;58446;41.490;22.098;2023-03-08T14:40:22;9.52;;;5.50;;
70825;SDS011;58446;41.490;22.098;2023-03-08T14:43:00;8.27;;;5.30;;
70825;SDS011;58446;41.490;22.098;2023-03-08T14:45:32;10.20;;;4.57;;
70825;SDS011;58446;41.490;22.098;2023-03-08T14:51:23;7.63;;;3.60;;
70825;SDS011;58446;41.490;22.098;2023-03-08T14:53:56;11.57;;;4.90;;
70825;SDS011;58446;41.490;22.098;2023-03-08T14:56:32;8.60;;;4.63;;
70825;SDS011;58446;41.490;22.098;2023-03-08T14:59:02;10.10;;;3.90;;
70825;SDS011;58446;41.490;22.098;2023-03-08T15:01:30;8.25;;;4.50;;
70825;SDS011;58446;41.490;22.098;2023-03-08T15:03:58;8.52;;;4.63;;
70825;SDS011;58446;41.490;22.098;2023-03-08T15:06:31;8.10;;;4.72;;
70825;SDS011;58446;41.490;22.098;2023-03-08T15:09:05;8.00;;;4.80;;
70825;SDS011;58446;41.490;22.098;2023-03-08T15:11:32;8.60;;;4.57;;
70825;SDS011;58446;41.490;22.098;2023-03-08T15:13:58;8.70;;;4.18;;
70825;SDS011;58446;41.490;22.098;2023-03-08T15:16:24;8.52;;;4.20;;
70825;SDS011;58446;41.490;22.098;2023-03-08T15:18:50;8.03;;;4.07;;
70825;SDS011;58446;41.490;22.098;2023-03-08T15:21:17;7.43;;;4.35;;
70825;SDS011;58446;41.490;22.098;2023-03-08T15:23:46;7.90;;;4.43;;
70825;SDS011;58446;41.490;22.098;2023-03-08T15:26:13;10.50;;;4.83;;
70825;SDS011;58446;41.490;22.098;2023-03-08T15:28:45;8.30;;;4.60;;
70825;SDS011;58446;41.490;22.098;2023-03-08T15:31:10;9.85;;;5.55;;
70825;SDS011;58446;41.490;22.098;2023-03-08T15:33:36;11.57;;;6.00;;
70825;SDS011;58446;41.490;22.098;2023-03-08T15:36:02;12.45;;;6.68;;
70825;SDS011;58446;41.490;22.098;2023-03-08T15:38:28;11.77;;;7.05;;
70825;SDS011;58446;41.490;22.098;2023-03-08T15:40:53;13.10;;;6.33;;
70825;SDS011;58446;41.490;22.098;2023-03-08T15:43:19;12.17;;;6.20;;
70825;SDS011;58446;41.490;22.098;2023-03-08T15:45:45;14.13;;;7.68;;
70825;SDS011;58446;41.490;22.098;2023-03-08T15:48:12;12.27;;;7.07;;
70825;SDS011;58446;41.490;22.098;2023-03-08T15:50:39;11.52;;;6.70;;